createdAt,value
2017-11-18T00:01:11.037Z,1.83
2017-11-18T00:03:38.595Z,2.73
2017-11-18T00:06:06.956Z,1.77
2017-11-18T00:08:34.583Z,3.50
2017-11-18T00:11:02.182Z,4.33
2017-11-18T00:13:29.767Z,2.07
2017-11-18T00:15:58.163Z,2.23
2017-11-18T00:18:25.926Z,1.90
2017-11-18T00:20:53.470Z,1.73
2017-11-18T00:23:21.804Z,3.90
2017-11-18T00:25:49.406Z,2.40
2017-11-18T00:28:17.720Z,2.57
2017-11-18T00:30:45.340Z,1.50
2017-11-18T00:33:13.657Z,1.40
2017-11-18T00:35:41.212Z,1.83
2017-11-18T00:38:08.794Z,3.90
2017-11-18T00:40:36.399Z,2.13
2017-11-18T00:43:04.711Z,2.87
2017-11-18T00:45:32.371Z,1.40
2017-11-18T00:47:59.966Z,2.13
2017-11-18T00:50:27.554Z,2.10
2017-11-18T00:52:55.859Z,4.30
2017-11-18T00:55:23.422Z,1.30
2017-11-18T00:57:51.019Z,2.70
2017-11-18T01:00:18.611Z,1.80
2017-11-18T01:02:46.928Z,2.60
2017-11-18T01:05:14.991Z,1.67
2017-11-18T01:07:42.563Z,2.20
2017-11-18T01:10:10.282Z,1.57
2017-11-18T01:12:38.623Z,1.77
2017-11-18T01:15:06.195Z,1.30
2017-11-18T01:17:33.786Z,1.77
2017-11-18T01:20:02.180Z,6.90
2017-11-18T01:22:29.766Z,1.90
2017-11-18T01:24:57.315Z,1.20
2017-11-18T01:27:24.890Z,1.23
2017-11-18T01:29:52.472Z,1.50
2017-11-18T01:32:20.026Z,1.40
2017-11-18T01:34:47.569Z,1.50
2017-11-18T01:37:15.153Z,1.60
2017-11-18T01:39:42.718Z,4.10
2017-11-18T01:42:10.418Z,1.43
2017-11-18T01:44:38.228Z,1.30
2017-11-18T01:47:05.842Z,3.00
2017-11-18T01:49:33.408Z,1.10
2017-11-18T01:52:00.977Z,1.10
2017-11-18T01:54:28.558Z,1.30
2017-11-18T01:56:56.115Z,6.70
2017-11-18T01:59:23.700Z,1.50
2017-11-18T02:01:51.368Z,2.30
2017-11-18T02:04:18.969Z,2.97
2017-11-18T02:06:46.747Z,1.10
2017-11-18T02:09:14.309Z,0.97
2017-11-18T02:11:41.885Z,3.03
2017-11-18T02:14:09.440Z,1.47
2017-11-18T02:16:37.027Z,1.13
2017-11-18T02:19:04.700Z,1.27
2017-11-18T02:21:33.075Z,1.90
2017-11-18T02:24:00.781Z,1.13
2017-11-18T02:26:28.311Z,1.63
2017-11-18T02:28:56.670Z,1.07
2017-11-18T02:31:24.258Z,1.73
2017-11-18T02:33:51.838Z,2.60
2017-11-18T02:36:19.374Z,1.77
2017-11-18T02:38:47.781Z,1.53
2017-11-18T02:41:15.331Z,1.03
2017-11-18T02:43:42.889Z,1.80
2017-11-18T02:46:10.477Z,3.33
2017-11-18T02:48:38.081Z,13.97
2017-11-18T02:51:05.623Z,4.30
2017-11-18T02:53:33.197Z,1.80
2017-11-18T02:56:01.556Z,1.90
2017-11-18T02:58:29.115Z,1.83
2017-11-18T03:00:57.467Z,2.00
2017-11-18T03:03:25.168Z,1.63
2017-11-18T03:05:52.721Z,2.40
2017-11-18T03:08:20.465Z,1.80
2017-11-18T03:10:48.036Z,1.80
2017-11-18T03:13:15.571Z,2.00
2017-11-18T03:15:43.158Z,1.90
2017-11-18T03:18:10.762Z,1.83
2017-11-18T03:20:38.316Z,1.33
2017-11-18T03:23:05.926Z,1.47
2017-11-18T03:25:33.716Z,1.33
2017-11-18T03:28:01.307Z,1.10
2017-11-18T03:30:28.879Z,1.57
2017-11-18T03:32:56.449Z,2.07
2017-11-18T03:35:24.044Z,2.43
2017-11-18T03:37:51.595Z,2.07
2017-11-18T03:40:19.194Z,1.23
2017-11-18T03:42:47.527Z,1.43
2017-11-18T03:45:15.177Z,1.40
2017-11-18T03:47:42.907Z,1.27
2017-11-18T03:50:10.455Z,1.27
2017-11-18T03:52:38.825Z,1.30
2017-11-18T03:55:07.141Z,1.57
2017-11-18T03:57:34.833Z,1.30
2017-11-18T04:00:02.423Z,1.70
2017-11-18T04:02:30.801Z,6.33
2017-11-18T04:04:59.194Z,1.43
2017-11-18T04:07:27.527Z,2.50
2017-11-18T04:09:55.275Z,2.83
2017-11-18T04:12:22.873Z,1.60
2017-11-18T04:14:50.551Z,1.40
2017-11-18T04:17:18.911Z,1.70
2017-11-18T04:19:46.542Z,1.77
2017-11-18T04:22:14.126Z,1.13
2017-11-18T04:24:41.688Z,1.80
2017-11-18T04:27:09.269Z,3.13
2017-11-18T04:29:37.752Z,1.93
2017-11-18T04:32:06.159Z,3.27
2017-11-18T04:34:33.853Z,1.67
2017-11-18T04:37:01.412Z,2.13
2017-11-18T04:39:29.007Z,1.60
2017-11-18T04:41:57.325Z,1.93
2017-11-18T04:44:24.931Z,1.50
2017-11-18T04:46:52.512Z,3.33
2017-11-18T04:49:20.845Z,2.27
2017-11-18T04:51:48.482Z,1.90
2017-11-18T04:54:16.077Z,7.73
2017-11-18T04:56:43.733Z,1.60
2017-11-18T04:59:11.357Z,1.83
2017-11-18T05:01:38.895Z,2.77
2017-11-18T05:04:08.157Z,1.13
2017-11-18T05:06:35.719Z,2.73
2017-11-18T05:09:04.195Z,1.37
2017-11-18T05:11:31.775Z,2.30
2017-11-18T05:13:59.341Z,1.67
2017-11-18T05:16:27.672Z,1.47
2017-11-18T05:18:55.240Z,1.77
2017-11-18T05:21:22.814Z,2.30
2017-11-18T05:23:50.365Z,4.93
2017-11-18T05:26:18.098Z,1.63
2017-11-18T05:28:45.681Z,1.30
2017-11-18T05:31:13.229Z,3.40
2017-11-18T05:33:40.851Z,1.43
2017-11-18T05:36:09.201Z,3.10
2017-11-18T05:38:36.800Z,5.70
2017-11-18T05:41:04.383Z,2.03
2017-11-18T05:43:31.952Z,2.20
2017-11-18T05:45:59.496Z,3.43
2017-11-18T05:48:27.196Z,1.20
2017-11-18T05:50:54.779Z,1.80
2017-11-18T05:53:23.145Z,1.50
2017-11-18T05:55:50.705Z,1.77
2017-11-18T05:58:18.320Z,1.70
2017-11-18T06:00:45.893Z,2.33
2017-11-18T06:03:13.512Z,3.60
2017-11-18T06:05:41.859Z,1.47
2017-11-18T06:08:09.448Z,2.03
2017-11-18T06:10:37.041Z,2.00
2017-11-18T06:13:04.596Z,1.50
2017-11-18T06:15:32.343Z,1.70
2017-11-18T06:17:59.908Z,1.60
2017-11-18T06:20:27.454Z,2.47
2017-11-18T06:22:55.044Z,1.63
2017-11-18T06:25:22.742Z,1.70
2017-11-18T06:27:50.293Z,2.27
2017-11-18T06:30:17.853Z,1.43
2017-11-18T06:32:45.420Z,2.20
2017-11-18T06:35:13.004Z,3.27
2017-11-18T06:37:41.368Z,3.33
2017-11-18T06:40:08.936Z,1.53
2017-11-18T06:42:37.295Z,1.30
2017-11-18T06:45:04.858Z,11.40
2017-11-18T06:47:32.419Z,1.53
2017-11-18T06:50:00.018Z,1.03
2017-11-18T06:52:27.560Z,1.23
2017-11-18T06:54:55.896Z,1.90
2017-11-18T06:57:23.474Z,11.93
2017-11-18T06:59:51.052Z,1.33
2017-11-18T07:02:19.428Z,1.50
2017-11-18T07:04:47.756Z,6.90
2017-11-18T07:07:15.372Z,6.93
2017-11-18T07:09:43.672Z,8.53
2017-11-18T07:12:11.251Z,18.03
2017-11-18T07:14:38.838Z,1.70
2017-11-18T07:17:06.418Z,2.00
2017-11-18T07:19:34.013Z,1.80
2017-11-18T07:22:01.589Z,2.00
2017-11-18T07:24:29.176Z,1.70
2017-11-18T07:26:56.802Z,2.70
2017-11-18T07:29:24.392Z,2.77
2017-11-18T07:31:51.989Z,5.10
2017-11-18T07:34:20.317Z,3.63
2017-11-18T07:36:47.895Z,1.47
2017-11-18T07:39:15.450Z,1.10
2017-11-18T07:41:43.092Z,3.00
2017-11-18T07:44:10.693Z,1.00
2017-11-18T07:46:38.276Z,3.87
2017-11-18T07:49:06.616Z,2.63
2017-11-18T07:51:34.685Z,2.77
2017-11-18T07:54:02.280Z,1.93
2017-11-18T07:56:30.616Z,8.23
2017-11-18T07:58:58.492Z,1.07
2017-11-18T08:01:26.849Z,1.23
2017-11-18T08:03:54.590Z,1.10
2017-11-18T08:06:22.156Z,3.77
2017-11-18T08:08:49.734Z,5.50
2017-11-18T08:11:17.373Z,1.10
2017-11-18T08:13:44.923Z,1.10
2017-11-18T08:16:12.606Z,1.00
2017-11-18T08:18:40.180Z,1.73
2017-11-18T08:21:07.742Z,3.70
2017-11-18T08:23:35.483Z,1.17
2017-11-18T08:26:03.220Z,1.23
2017-11-18T08:28:31.537Z,1.40
2017-11-18T08:30:59.180Z,3.10
2017-11-18T08:33:26.899Z,1.37
2017-11-18T08:35:54.508Z,1.30
2017-11-18T08:38:22.055Z,1.13
2017-11-18T08:40:49.606Z,1.20
2017-11-18T08:43:18.078Z,1.00
2017-11-18T08:45:46.526Z,1.33
2017-11-18T08:48:14.075Z,1.47
2017-11-18T08:50:41.641Z,0.97
2017-11-18T08:53:09.258Z,5.60
2017-11-18T08:55:37.047Z,1.10
2017-11-18T08:58:04.593Z,3.43
2017-11-18T09:00:32.199Z,0.97
2017-11-18T09:02:59.751Z,0.83
2017-11-18T09:05:27.319Z,3.50
2017-11-18T09:07:54.897Z,5.40
2017-11-18T09:10:23.215Z,2.90
2017-11-18T09:12:50.822Z,0.77
2017-11-18T09:15:18.389Z,7.03
2017-11-18T09:17:46.759Z,1.00
2017-11-18T09:20:14.330Z,1.90
2017-11-18T09:22:42.651Z,4.07
2017-11-18T09:25:10.254Z,0.90
2017-11-18T09:27:37.825Z,1.13
2017-11-18T09:30:06.159Z,1.23
2017-11-18T09:32:33.779Z,2.10
2017-11-18T09:35:01.377Z,1.10
2017-11-18T09:37:29.021Z,1.90
2017-11-18T09:39:56.573Z,1.70
2017-11-18T09:42:24.148Z,2.20
2017-11-18T09:44:51.699Z,2.13
2017-11-18T09:47:19.270Z,3.57
2017-11-18T09:49:46.851Z,1.63
2017-11-18T09:52:14.415Z,1.97
2017-11-18T09:54:42.027Z,3.67
2017-11-18T09:57:09.621Z,2.70
2017-11-18T09:59:37.360Z,1.47
2017-11-18T10:02:05.003Z,6.23
2017-11-18T10:04:32.585Z,12.70
2017-11-18T10:07:00.187Z,2.13
2017-11-18T10:09:27.779Z,1.07
2017-11-18T10:11:55.359Z,3.53
2017-11-18T10:14:22.947Z,2.17
2017-11-18T10:16:50.609Z,4.70
2017-11-18T10:19:18.202Z,6.70
2017-11-18T10:21:45.905Z,3.30
2017-11-18T10:24:13.505Z,3.80
2017-11-18T10:26:41.073Z,4.93
2017-11-18T10:29:08.693Z,30.03
2017-11-18T10:31:36.298Z,5.63
2017-11-18T10:34:03.843Z,3.27
2017-11-18T10:36:31.447Z,4.97
2017-11-18T10:38:59.778Z,2.13
2017-11-18T10:41:27.325Z,8.13
2017-11-18T10:43:54.897Z,6.70
2017-11-18T10:46:22.502Z,5.90
2017-11-18T10:48:50.892Z,9.20
2017-11-18T10:51:18.465Z,13.33
2017-11-18T10:53:46.055Z,6.27
2017-11-18T10:56:13.735Z,6.77
2017-11-18T10:58:44.403Z,5.17
2017-11-18T11:01:12.853Z,4.33
2017-11-18T11:03:40.566Z,5.70
2017-11-18T11:06:08.140Z,8.17
2017-11-18T11:08:35.775Z,6.20
2017-11-18T11:11:03.367Z,7.30
2017-11-18T11:13:30.975Z,40.93
2017-11-18T11:15:59.291Z,15.90
2017-11-18T11:18:26.859Z,17.13
2017-11-18T11:20:54.443Z,17.70
2017-11-18T11:23:21.994Z,17.80
2017-11-18T11:25:49.603Z,35.17
2017-11-18T11:28:17.172Z,18.47
2017-11-18T11:30:44.785Z,17.87
2017-11-18T11:33:13.858Z,15.53
2017-11-18T11:35:41.405Z,16.50
2017-11-18T11:38:08.997Z,15.70
2017-11-18T11:40:36.545Z,23.90
2017-11-18T11:43:04.107Z,18.93
2017-11-18T11:45:31.721Z,16.20
2017-11-18T11:47:59.315Z,5.23
2017-11-18T11:50:26.916Z,25.40
2017-11-18T11:52:54.474Z,12.30
2017-11-18T11:55:22.061Z,7.43
2017-11-18T11:57:49.773Z,9.47
2017-11-18T12:00:17.497Z,15.47
2017-11-18T12:02:45.046Z,17.77
2017-11-18T12:05:12.770Z,9.00
2017-11-18T12:07:40.376Z,10.20
2017-11-18T12:10:07.959Z,11.80
2017-11-18T12:12:35.566Z,10.57
2017-11-18T12:15:03.124Z,9.43
2017-11-18T12:17:30.735Z,17.10
2017-11-18T12:19:58.298Z,11.47
2017-11-18T12:22:25.933Z,9.57
2017-11-18T12:24:53.494Z,11.53
2017-11-18T12:27:21.098Z,10.93
2017-11-18T12:29:48.699Z,11.90
2017-11-18T12:32:17.003Z,8.13
2017-11-18T12:34:44.663Z,5.17
2017-11-18T12:37:12.464Z,14.27
2017-11-18T12:39:40.056Z,4.77
2017-11-18T12:42:08.387Z,8.67
2017-11-18T12:44:36.307Z,6.30
2017-11-18T12:47:04.642Z,5.50
2017-11-18T12:49:32.203Z,5.77
2017-11-18T12:51:59.799Z,4.60
2017-11-18T12:54:28.158Z,6.50
2017-11-18T12:56:55.741Z,7.90
2017-11-18T12:59:24.172Z,6.07
2017-11-18T13:01:51.930Z,11.43
2017-11-18T13:04:19.525Z,14.90
2017-11-18T13:06:47.075Z,3.27
2017-11-18T13:09:14.648Z,4.33
2017-11-18T13:11:42.196Z,7.93
2017-11-18T13:14:09.769Z,4.97
2017-11-18T13:16:37.368Z,4.40
2017-11-18T13:19:04.932Z,8.00
2017-11-18T13:21:32.651Z,2.80
2017-11-18T13:24:00.207Z,3.57
2017-11-18T13:26:28.651Z,7.17
2017-11-18T13:28:56.237Z,1.70
2017-11-18T13:31:24.052Z,12.93
2017-11-18T13:33:51.627Z,1.67
2017-11-18T13:36:19.194Z,3.40
2017-11-18T13:38:46.847Z,7.30
2017-11-18T13:41:14.409Z,5.47
2017-11-18T13:43:41.998Z,12.00
2017-11-18T13:46:09.595Z,3.30
2017-11-18T13:48:37.936Z,2.57
2017-11-18T13:51:07.108Z,6.23
2017-11-18T13:53:34.758Z,8.67
2017-11-18T13:56:02.324Z,1.50
2017-11-18T13:58:29.904Z,1.63
2017-11-18T14:00:57.514Z,3.83
2017-11-18T14:03:26.004Z,2.80
2017-11-18T14:05:53.640Z,1.90
2017-11-18T14:08:21.966Z,3.03
2017-11-18T14:10:49.561Z,12.57
2017-11-18T14:13:17.282Z,2.77
2017-11-18T14:15:44.833Z,2.40
2017-11-18T14:18:12.459Z,2.57
2017-11-18T14:20:40.812Z,2.73
2017-11-18T14:23:08.369Z,1.70
2017-11-18T14:25:35.956Z,7.70
2017-11-18T14:28:03.500Z,1.80
2017-11-18T14:30:31.140Z,8.77
2017-11-18T14:32:58.699Z,4.10
2017-11-18T14:35:26.448Z,3.17
2017-11-18T14:37:54.028Z,2.23
2017-11-18T14:40:21.556Z,3.47
2017-11-18T14:42:49.244Z,3.90
2017-11-18T14:45:16.816Z,2.67
2017-11-18T14:47:44.407Z,5.37
2017-11-18T14:50:12.878Z,5.40
2017-11-18T14:52:40.464Z,4.20
2017-11-18T14:55:08.772Z,9.93
2017-11-18T14:57:36.386Z,5.27
2017-11-18T15:00:04.820Z,7.33
2017-11-18T15:02:32.550Z,3.23
2017-11-18T15:05:00.130Z,2.90
2017-11-18T15:07:27.732Z,3.10
2017-11-18T15:09:55.307Z,2.77
2017-11-18T15:12:23.646Z,15.03
2017-11-18T15:14:53.010Z,3.60
2017-11-18T15:17:26.155Z,12.07
2017-11-18T15:19:54.399Z,12.03
2017-11-18T15:22:24.890Z,15.07
2017-11-18T15:24:58.920Z,13.93
2017-11-18T15:27:32.108Z,21.97
2017-11-18T15:30:14.595Z,59.13
2017-11-18T15:32:47.497Z,27.90
2017-11-18T15:35:25.541Z,21.20
2017-11-18T15:37:58.931Z,22.23
2017-11-18T15:40:26.579Z,11.53
2017-11-18T15:42:54.806Z,16.97
2017-11-18T15:45:37.323Z,5.30
2017-11-18T15:51:14.575Z,8.00
2017-11-18T15:53:47.634Z,11.90
2017-11-18T15:56:21.731Z,7.90
2017-11-18T15:58:50.182Z,3.60
2017-11-18T16:01:23.572Z,3.17
2017-11-18T16:04:07.856Z,5.40
2017-11-18T16:06:51.234Z,10.23
2017-11-18T16:09:18.833Z,11.20
2017-11-18T16:11:46.554Z,4.13
2017-11-18T16:14:14.154Z,3.23
2017-11-18T16:16:41.740Z,13.30
2017-11-18T16:19:10.158Z,3.13
2017-11-18T16:21:37.768Z,3.57
2017-11-18T16:24:06.124Z,5.57
2017-11-18T16:26:33.719Z,5.17
2017-11-18T16:29:02.073Z,7.27
2017-11-18T16:31:30.432Z,6.43
2017-11-18T16:33:57.985Z,2.63
2017-11-18T16:36:25.563Z,2.80
2017-11-18T16:38:53.136Z,2.50
2017-11-18T16:41:20.728Z,2.17
2017-11-18T16:43:48.299Z,2.20
2017-11-18T16:46:16.090Z,4.70
2017-11-18T16:48:43.795Z,5.43
2017-11-18T16:51:12.129Z,3.23
2017-11-18T16:53:39.727Z,1.83
2017-11-18T16:56:07.296Z,5.47
2017-11-18T16:58:35.632Z,2.53
2017-11-18T17:01:03.299Z,2.03
2017-11-18T17:03:30.903Z,3.37
2017-11-18T17:05:59.212Z,2.73
2017-11-18T17:08:26.782Z,2.30
2017-11-18T17:10:54.523Z,2.47
2017-11-18T17:13:22.084Z,9.33
2017-11-18T17:15:49.897Z,7.40
2017-11-18T17:18:17.441Z,6.20
2017-11-18T17:20:44.997Z,2.10
2017-11-18T17:23:12.563Z,1.73
2017-11-18T17:25:40.134Z,2.63
2017-11-18T17:28:07.873Z,3.67
2017-11-18T17:30:35.425Z,4.27
2017-11-18T17:33:03.029Z,1.80
2017-11-18T17:35:30.681Z,1.60
2017-11-18T17:37:58.407Z,2.00
2017-11-18T17:40:25.995Z,3.63
2017-11-18T17:42:53.573Z,2.20
2017-11-18T17:45:21.173Z,1.60
2017-11-18T17:47:48.712Z,3.73
2017-11-18T17:50:17.145Z,6.10
2017-11-18T17:52:44.981Z,1.57
2017-11-18T17:55:12.535Z,1.73
2017-11-18T17:57:40.125Z,1.63
2017-11-18T18:00:07.731Z,1.87
2017-11-18T18:02:35.319Z,1.47
2017-11-18T18:05:02.931Z,0.80
2017-11-18T18:07:30.497Z,1.70
2017-11-18T18:09:58.231Z,2.90
2017-11-18T18:12:25.788Z,3.93
2017-11-18T18:14:53.384Z,2.20
2017-11-18T18:17:21.144Z,1.40
2017-11-18T18:19:48.727Z,8.30
2017-11-18T18:22:17.057Z,1.70
2017-11-18T18:24:44.852Z,2.00
2017-11-18T18:27:12.449Z,2.40
2017-11-18T18:29:40.055Z,3.40
2017-11-18T18:32:07.639Z,2.60
2017-11-18T18:34:35.983Z,4.53
2017-11-18T18:37:03.787Z,1.00
2017-11-18T18:39:32.174Z,1.00
2017-11-18T18:42:00.506Z,3.43
2017-11-18T18:44:28.077Z,2.87
2017-11-18T18:46:55.647Z,1.90
2017-11-18T18:49:23.245Z,1.80
2017-11-18T18:51:50.853Z,1.27
2017-11-18T18:54:18.686Z,1.50
2017-11-18T18:56:46.497Z,4.93
2017-11-18T18:59:14.088Z,1.23
2017-11-18T19:01:41.778Z,0.90
2017-11-18T19:04:09.343Z,0.87
2017-11-18T19:06:37.019Z,0.60
2017-11-18T19:09:04.679Z,0.80
2017-11-18T19:11:32.282Z,1.60
2017-11-18T19:14:00.636Z,1.10
2017-11-18T19:16:28.201Z,7.90
2017-11-18T19:18:55.792Z,0.70
2017-11-18T19:21:24.153Z,2.97
2017-11-18T19:23:51.754Z,2.30
2017-11-18T19:26:19.352Z,1.43
2017-11-18T19:28:46.949Z,2.53
2017-11-18T19:31:15.305Z,2.63
2017-11-18T19:33:43.016Z,0.83
2017-11-18T19:36:10.585Z,0.73
2017-11-18T19:38:38.179Z,0.60
2017-11-18T19:41:05.764Z,0.90
2017-11-18T19:43:34.130Z,0.80
2017-11-18T19:46:01.740Z,1.73
2017-11-18T19:48:29.311Z,0.70
2017-11-18T19:50:56.900Z,1.07
2017-11-18T19:53:24.494Z,1.13
2017-11-18T19:55:53.031Z,1.37
2017-11-18T19:58:20.690Z,0.70
2017-11-18T20:00:48.308Z,1.00
2017-11-18T20:03:15.880Z,1.90
2017-11-18T20:05:43.486Z,13.20
2017-11-18T20:08:11.232Z,1.80
2017-11-18T20:10:38.831Z,1.10
2017-11-18T20:13:07.213Z,1.17
2017-11-18T20:15:35.563Z,2.23
2017-11-18T20:18:03.267Z,1.17
2017-11-18T20:20:30.880Z,12.30
2017-11-18T20:22:58.713Z,1.03
2017-11-18T20:25:26.307Z,0.90
2017-11-18T20:27:53.870Z,0.77
2017-11-18T20:30:21.468Z,1.70
2017-11-18T20:32:49.825Z,0.60
2017-11-18T20:35:17.438Z,0.60
2017-11-18T20:37:45.014Z,1.20
2017-11-18T20:40:12.617Z,0.77
2017-11-18T20:42:40.962Z,1.97
2017-11-18T20:45:08.609Z,1.80
2017-11-18T20:47:36.268Z,1.90
2017-11-18T20:50:03.939Z,0.57
2017-11-18T20:52:31.482Z,0.67
2017-11-18T20:54:59.072Z,0.60
2017-11-18T20:57:26.644Z,2.83
2017-11-18T20:59:54.248Z,0.90
2017-11-18T21:02:21.847Z,0.60
2017-11-18T21:04:49.396Z,0.50
2017-11-18T21:07:16.994Z,3.20
2017-11-18T21:09:45.312Z,0.50
2017-11-18T21:12:12.904Z,0.50
2017-11-18T21:14:40.468Z,0.83
2017-11-18T21:17:08.068Z,0.93
2017-11-18T21:19:35.642Z,0.60
2017-11-18T21:22:03.963Z,3.30
2017-11-18T21:24:31.749Z,4.50
2017-11-18T21:27:00.058Z,0.73
2017-11-18T21:29:27.660Z,1.33
2017-11-18T21:31:55.218Z,0.50
2017-11-18T21:34:22.815Z,0.50
2017-11-18T21:36:51.180Z,0.53
2017-11-18T21:39:19.567Z,0.50
2017-11-18T21:41:47.924Z,0.80
2017-11-18T21:44:15.552Z,4.10
2017-11-18T21:46:43.147Z,0.50
2017-11-18T21:49:12.236Z,2.97
2017-11-18T21:51:39.909Z,0.50
2017-11-18T21:54:07.476Z,0.53
2017-11-18T21:56:35.802Z,0.60
2017-11-18T21:59:03.418Z,1.20
2017-11-18T22:01:31.839Z,0.50
2017-11-18T22:03:59.410Z,0.87
2017-11-18T22:06:27.014Z,0.40
2017-11-18T22:08:54.587Z,0.50
2017-11-18T22:11:22.931Z,0.50
2017-11-18T22:13:52.061Z,0.60
2017-11-18T22:16:20.418Z,0.60
2017-11-18T22:18:47.984Z,0.40
2017-11-18T22:21:16.360Z,0.57
2017-11-18T22:23:43.926Z,1.03
2017-11-18T22:26:12.261Z,0.70
2017-11-18T22:28:39.840Z,0.40
2017-11-18T22:31:07.422Z,0.50
2017-11-18T22:33:35.778Z,0.50
2017-11-18T22:36:03.330Z,0.93
2017-11-18T22:38:30.934Z,1.20
2017-11-18T22:40:59.258Z,0.60
2017-11-18T22:43:26.845Z,0.80
2017-11-18T22:45:54.384Z,0.50
2017-11-18T22:48:21.964Z,0.60
2017-11-18T22:50:49.542Z,0.50
2017-11-18T22:53:17.860Z,0.40
2017-11-18T22:55:45.446Z,0.43
2017-11-18T22:58:12.989Z,0.50
2017-11-18T23:00:42.339Z,0.50
2017-11-18T23:03:10.696Z,0.70
2017-11-18T23:05:38.275Z,0.43
2017-11-18T23:08:06.692Z,0.77
2017-11-18T23:10:34.231Z,1.90
2017-11-18T23:13:01.816Z,0.57
2017-11-18T23:15:29.470Z,0.93
2017-11-18T23:17:57.037Z,0.50
2017-11-18T23:20:24.638Z,0.53
2017-11-18T23:22:52.207Z,0.40
2017-11-18T23:25:20.681Z,0.50
2017-11-18T23:27:48.244Z,0.50
2017-11-18T23:30:16.663Z,2.00
2017-11-18T23:32:44.241Z,0.77
2017-11-18T23:35:11.814Z,0.47
2017-11-18T23:37:39.416Z,0.47
2017-11-18T23:40:07.745Z,0.50
2017-11-18T23:42:35.351Z,0.43
2017-11-18T23:45:03.678Z,1.23
2017-11-18T23:47:31.287Z,1.87
2017-11-18T23:49:59.666Z,0.80
2017-11-18T23:52:28.000Z,3.70
2017-11-18T23:54:55.590Z,1.37
2017-11-18T23:57:23.297Z,0.40
2017-11-18T23:59:51.063Z,0.50
